Latest Weather Observations for Telfer

IDW60801

Issued at 12:32 pm WST Friday 27 May 2016 (issued every 30 minutes, with the page automatically refreshed every 10 minutes)

About weather observations | Map of weather stations | Latest weather observations for WA | Other Formats
Station Details ID: 013030 Name: TELFER AERO Lat: -21.71 Lon: 122.23 Height: 291.9 m
Data from the previous 72 hours. | See also: Recent months at Telfer
Date/Time
WST
Temp
°C
App
Temp
°C
Dew
Point
Rel
Hum
%
Delta-T
°C
Wind Press
QNH
hPa
Press
MSL
hPa
Rain
since 9 am
mm
Dir
 
Spd
km/h
Gust
km/h
Spd
kts
Gust
kts
27/12:30pm 26.9 20.9 8.8 32 10.0 ESE 30 39 16 21 1017.5 1016.3 0.0
27/12:00pm 26.4 20.0 8.4 32 9.8 ESE 32 41 17 22 1018.2 1017.0 0.0
27/11:30am 26.4 19.9 8.8 33 9.7 ESE 33 44 18 24 1018.7 1017.5 0.0
27/11:00am 25.1 18.0 8.1 34 9.2 ESE 35 46 19 25 1019.2 1018.0 0.0
27/10:30am 25.3 18.7 8.7 35 9.1 SE 33 44 18 24 1019.8 1018.7 0.0
27/10:00am 23.8 16.8 8.6 38 8.2 ESE 35 48 19 26 1020.0 1018.9 0.0
27/09:30am 23.8 17.3 9.0 39 8.1 ESE 33 46 18 25 1020.1 1019.0 0.0
27/09:00am 22.5 14.9 9.0 42 7.3 ESE 39 50 21 27 1020.1 1019.0 0.0
27/08:30am 22.1 15.4 9.6 45 6.8 ESE 35 52 19 28 1019.8 1018.7 0.0
27/08:00am 21.3 14.5 10.8 51 5.8 SE 37 46 20 25 1019.4 1018.2 0.0
27/07:30am 20.5 14.8 11.7 57 5.0 SE 33 41 18 22 1019.1 1017.9 0.0
27/07:00am 19.9 15.6 12.2 61 4.4 SE 26 37 14 20 1018.7 1017.5 0.0
27/06:30am 19.5 15.7 12.5 64 4.0 SE 24 30 13 16 1018.3 1017.1 0.0
27/06:00am 19.6 16.3 12.8 65 3.9 SE 22 28 12 15 1018.0 1016.8 0.0
27/05:30am 19.8 17.0 13.3 66 3.8 SE 20 28 11 15 1017.8 1016.6 0.0
27/05:00am 19.9 17.3 13.8 68 3.5 SE 20 26 11 14 1017.5 1016.3 0.0
27/04:30am 19.9 17.6 14.0 69 3.4 SE 19 22 10 12 1017.2 1016.0 0.0
27/04:00am 20.3 17.8 14.2 68 3.6 SE 20 26 11 14 1017.1 1015.9 0.0
27/03:30am 20.4 18.2 14.3 68 3.6 SE 19 22 10 12 1017.0 1015.8 0.0
27/03:00am 20.7 18.9 14.4 67 3.7 SE 17 20 9 11 1016.9 1015.7 0.0
27/02:30am 21.0 18.8 14.4 66 3.9 SE 19 24 10 13 1016.9 1015.7 0.0
27/02:00am 21.5 19.1 14.4 64 4.2 SE 20 24 11 13 1016.9 1015.7 0.0
27/01:30am 22.2 19.8 14.3 61 4.7 SE 20 24 11 13 1016.9 1015.7 0.0
27/01:00am 22.7 20.8 14.3 59 5.0 SE 17 20 9 11 1016.8 1015.6 0.0
27/12:30am 22.7 21.1 14.0 58 5.1 SE 15 19 8 10 1016.8 1015.6 0.0
27/12:00am 22.9 21.7 13.9 57 5.3 SE 13 19 7 10 1016.5 1015.3 0.0
 
Date/Time
WST
Temp
°C
App
Temp
°C
Dew
Point
Rel
Hum
%
Delta-T
°C
Wind Press
QNH
hPa
Press
MSL
hPa
Rain
since 9 am
mm
Dir
 
Spd
km/h
Gust
km/h
Spd
kts
Gust
kts
26/11:30pm 23.2 21.6 13.9 56 5.5 SE 15 19 8 10 1016.5 1015.3 0.0
26/11:00pm 22.0 21.4 13.6 59 4.9 ESE 9 9 5 5 1016.3 1015.1 0.0
26/10:30pm 22.8 21.9 13.6 56 5.4 SE 11 13 6 7 1016.4 1015.2 0.0
26/10:00pm 24.1 22.3 13.3 51 6.3 SE 15 17 8 9 1016.8 1015.6 0.0
26/09:30pm 25.4 23.3 13.6 48 7.0 SSE 17 20 9 11 1016.9 1015.7 0.0
26/09:00pm 26.0 23.4 13.2 45 7.6 SSE 19 22 10 12 1016.6 1015.4 0.0
26/08:30pm 26.0 24.0 12.8 44 7.8 SSE 15 17 8 9 1016.5 1015.3 0.0
26/08:00pm 27.1 24.6 12.3 39 8.7 SSE 17 20 9 11 1016.2 1015.0 0.0
26/07:30pm 25.8 24.3 11.9 42 8.1 SE 11 17 6 9 1016.0 1014.8 0.0
26/07:00pm 28.1 25.1 12.0 36 9.4 SSE 19 24 10 13 1015.7 1014.5 0.0
26/06:30pm 28.4 25.6 11.5 35 9.8 SSE 17 20 9 11 1015.4 1014.2 0.0
26/06:00pm 28.4 26.1 10.6 33 10.2 SSE 13 17 7 9 1015.0 1013.8 0.0
26/05:30pm 29.3 26.8 10.9 32 10.7 SE 15 17 8 9 1014.5 1013.3 0.0
26/05:00pm 30.9 28.6 10.3 28 11.9 SSE 13 17 7 9 1014.2 1013.0 0.0
26/04:30pm 31.8 29.6 9.3 25 12.8 S 11 19 6 10 1013.9 1012.7 0.0
26/04:00pm 32.2 31.0 10.3 26 12.7 NNE 7 11 4 6 1013.7 1012.5 0.0
26/03:30pm 32.3 31.0 9.8 25 13.0 ESE 7 13 4 7 1013.7 1012.5 0.0
26/03:00pm 32.3 30.4 9.2 24 13.2 E 9 15 5 8 1013.7 1012.5 0.0
26/02:30pm 32.1 30.7 9.6 25 12.9 S 7 11 4 6 1013.7 1012.5 0.0
26/02:00pm 32.3 30.8 9.2 24 13.2 WNW 7 13 4 7 1014.1 1012.9 0.0
26/01:30pm 31.6 29.4 9.2 25 12.8 WSW 11 19 6 10 1014.1 1012.9 0.0
26/01:00pm 31.6 29.4 9.2 25 12.7 NW 11 15 6 8 1014.4 1013.2 0.0
26/12:30pm 31.5 30.1 10.8 28 12.1 S 9 17 5 9 1014.8 1013.6 0.0
26/12:00pm 30.7 29.2 10.6 29 11.6 SSW 9 15 5 8 1015.3 1014.1 0.0
26/11:30am 30.5 29.1 11.0 30 11.4 SSW 9 13 5 7 1015.6 1014.4 0.0
26/11:00am 30.3 28.2 11.3 31 11.1 SW 13 17 7 9 1016.0 1014.8 0.0
26/10:30am 29.5 27.5 11.5 33 10.5 SW 13 17 7 9 1016.2 1015.0 0.0
26/10:00am 28.5 26.3 12.0 36 9.7 SW 15 17 8 9 1016.4 1015.2 0.0
26/09:30am 27.6 26.0 12.8 40 8.8 WSW 13 19 7 10 1016.5 1015.3 0.0
26/09:00am 25.5 25.1 14.0 49 6.9 WSW 9 13 5 7 1016.2 1015.0 0.0
26/08:30am 24.2 23.8 14.0 53 6.1 W 9 13 5 7 1016.1 1014.9 0.0
26/08:00am 22.5 22.6 14.4 60 4.8 NW 7 9 4 5 1015.6 1014.4 0.0
26/07:30am 20.8 19.5 13.7 64 4.1 NW 13 17 7 9 1015.3 1014.1 0.0
26/07:00am 19.6 18.6 13.5 68 3.5 NW 11 13 6 7 1014.9 1013.7 0.0
26/06:30am 18.7 18.0 13.3 71 3.1 NNW 9 11 5 6 1014.7 1013.5 0.0
26/06:00am 21.0 20.5 13.9 64 4.2 W 9 13 5 7 1014.7 1013.5 0.0
26/05:30am 21.2 19.3 14.1 64 4.2 WNW 17 19 9 10 1014.6 1013.4 0.0
26/05:00am 21.7 19.4 14.1 62 4.5 W 19 22 10 12 1014.4 1013.2 0.0
26/04:30am 21.3 20.0 13.7 62 4.4 W 13 17 7 9 1014.1 1012.9 0.0
26/04:00am 21.0 19.5 13.2 61 4.5 WNW 13 15 7 8 1014.1 1012.9 0.0
26/03:30am 21.2 19.3 12.9 59 4.8 W 15 19 8 10 1013.9 1012.7 0.0
26/03:00am 20.5 19.0 12.0 58 4.8 W 11 13 6 7 1013.9 1012.7 0.0
26/02:30am 20.5 19.7 11.7 57 5.0 WNW 7 9 4 5 1014.0 1012.8 0.0
26/02:00am 21.0 19.7 11.3 54 5.4 W 9 15 5 8 1014.2 1013.0 0.0
26/01:30am 20.9 19.2 11.3 54 5.4 NW 11 19 6 10 1014.3 1013.1 0.0
26/01:00am 21.2 19.4 11.0 52 5.7 NNW 11 15 6 8 1014.3 1013.1 0.0
26/12:30am 22.7 20.1 10.8 47 6.7 NW 15 19 8 10 1014.3 1013.1 0.0
26/12:00am 22.8 20.2 10.6 46 6.8 NW 15 19 8 10 1014.5 1013.3 0.0
 
Date/Time
WST
Temp
°C
App
Temp
°C
Dew
Point
Rel
Hum
%
Delta-T
°C
Wind Press
QNH
hPa
Press
MSL
hPa
Rain
since 9 am
mm
Dir
 
Spd
km/h
Gust
km/h
Spd
kts
Gust
kts
25/11:30pm 23.1 19.7 10.5 45 7.0 NW 19 22 10 12 1014.5 1013.3 0.0
25/11:00pm 23.5 20.5 10.6 44 7.2 NW 17 22 9 12 1014.5 1013.3 0.0
25/10:30pm 23.7 21.1 10.7 44 7.3 NW 15 19 8 10 1014.6 1013.4 0.0
25/10:00pm 23.7 21.6 11.1 45 7.1 NW 13 17 7 9 1014.6 1013.4 0.0
25/09:30pm 24.7 22.0 10.2 40 8.1 NW 15 19 8 10 1014.6 1013.4 0.0
25/09:00pm 25.4 23.1 10.4 39 8.5 NW 13 17 7 9 1014.6 1013.4 0.0
25/08:30pm 25.5 23.7 10.9 40 8.3 NW 11 13 6 7 1014.4 1013.2 0.0
25/08:00pm 26.5 24.6 10.6 37 9.0 NW 11 13 6 7 1014.3 1013.1 0.0
25/07:30pm 27.0 25.5 10.7 36 9.3 NW 9 13 5 7 1014.2 1013.0 0.0
25/07:00pm 27.1 25.3 10.8 36 9.3 WNW 11 13 6 7 1013.9 1012.7 0.0
25/06:30pm 27.5 26.0 10.7 35 9.6 WNW 9 9 5 5 1013.6 1012.3 0.0
25/06:00pm 28.3 26.8 10.5 33 10.2 WNW 9 11 5 6 1013.3 1012.0 0.0
25/05:30pm 29.3 27.4 10.4 31 10.9 NW 11 15 6 8 1012.7 1011.5 0.0
25/05:00pm 30.6 28.2 10.0 28 11.8 NNW 13 17 7 9 1012.3 1011.1 0.0
25/04:30pm 31.3 28.1 10.1 27 12.2 NW 17 26 9 14 1012.1 1010.9 0.0
25/04:00pm 31.6 28.5 10.3 27 12.3 NW 17 28 9 15 1011.9 1010.7 0.0
25/03:30pm 31.6 28.1 10.3 27 12.3 NW 19 24 10 13 1011.8 1010.6 0.0
25/03:00pm 31.7 28.8 11.0 28 12.1 NW 17 30 9 16 1011.7 1010.5 0.0
25/02:30pm 31.7 29.5 12.0 30 11.7 NW 15 24 8 13 1012.0 1010.8 0.0
25/02:00pm 31.5 28.2 10.8 28 12.1 NW 19 26 10 14 1012.2 1011.0 0.0
25/01:30pm 31.4 28.9 12.2 30 11.4 NW 17 24 9 13 1012.4 1011.2 0.0
25/01:00pm 30.7 27.6 11.6 31 11.3 NW 19 32 10 17 1012.7 1011.5 0.0
25/12:30pm 30.4 27.4 11.9 32 10.9 NNW 19 28 10 15 1013.2 1011.9 0.0
25/12:00pm 30.3 27.5 12.7 34 10.5 NNW 19 28 10 15 1013.8 1012.6 0.0
25/11:30am 29.0 25.8 12.0 35 10.0 NNW 20 28 11 15 1014.3 1013.1 0.0
25/11:00am 29.4 27.0 12.8 36 9.9 NW 17 28 9 15 1014.8 1013.6 0.0
25/10:30am 28.7 26.8 14.1 40 8.9 NNW 17 22 9 12 1015.0 1013.8 0.0
25/10:00am 27.7 25.7 14.0 43 8.3 NNW 17 22 9 12 1015.2 1014.0 0.0
25/09:30am 27.1 25.7 14.5 46 7.7 NNW 15 20 8 11 1015.4 1014.2 0.0
25/09:00am 26.3 25.1 14.1 47 7.3 NW 13 17 7 9 1015.4 1014.2 0.0
25/08:30am 24.9 24.7 14.7 53 6.2 NW 9 11 5 6 1015.3 1014.1 0.0
25/08:00am 23.1 23.0 14.9 60 4.9 WNW 9 11 5 6 1015.1 1013.9 0.0
25/07:30am 21.5 21.6 14.4 64 4.2 NW 7 9 4 5 1015.0 1013.8 0.0
25/07:00am 20.4 20.3 13.8 66 3.9 WNW 7 9 4 5 1014.8 1013.6 0.0
25/06:30am 19.7 19.2 13.9 69 3.4 WNW 9 11 5 6 1014.7 1013.5 0.0
25/06:00am 19.8 19.3 13.7 68 3.5 NW 9 11 5 6 1014.3 1013.1 0.0
25/05:30am 19.9 19.5 14.0 69 3.4 NW 9 13 5 7 1014.1 1012.9 0.0
25/05:00am 20.2 19.4 14.1 68 3.6 NW 11 15 6 8 1013.9 1012.7 0.0
25/04:30am 20.3 19.5 14.0 67 3.7 NW 11 15 6 8 1013.7 1012.5 0.0
25/04:00am 20.5 19.6 13.7 65 4.0 NW 11 15 6 8 1013.6 1012.3 0.0
25/03:30am 20.5 20.3 13.5 64 4.1 NW 7 7 4 4 1013.5 1012.2 0.0
25/03:00am 20.4 20.1 13.4 64 4.1 NW 7 7 4 4 1013.5 1012.2 0.0
25/02:30am 20.5 20.5 13.5 64 4.1 NNW 6 7 3 4 1013.6 1012.3 0.0
25/02:00am 21.1 21.1 13.5 62 4.4 N 6 7 3 4 1013.7 1012.5 0.0
25/01:30am 20.8 22.0 13.7 64 4.1 CALM 0 0 0 0 1013.9 1012.7 0.0
25/01:00am 20.8 22.1 14.2 66 3.9 CALM 0 2 0 1 1014.2 1013.0 0.0
25/12:30am 20.5 21.7 13.9 66 3.9 CALM 0 0 0 0 1014.3 1013.1 0.0
25/12:00am 20.6 21.9 14.0 66 3.9 CALM 0 0 0 0 1014.5 1013.3 0.0
 
Date/Time
WST
Temp
°C
App
Temp
°C
Dew
Point
Rel
Hum
%
Delta-T
°C
Wind Press
QNH
hPa
Press
MSL
hPa
Rain
since 9 am
mm
Dir
 
Spd
km/h
Gust
km/h
Spd
kts
Gust
kts
24/11:30pm 21.3 22.6 14.0 63 4.3 CALM 0 0 0 0 1014.5 1013.3 0.0
24/11:00pm 21.7 23.0 14.1 62 4.5 CALM 0 0 0 0 1014.6 1013.4 0.0
24/10:30pm 22.5 23.7 13.8 58 5.1 CALM 0 0 0 0 1014.7 1013.5 0.0
24/10:00pm 22.6 23.8 13.9 58 5.1 CALM 0 0 0 0 1015.0 1013.8 0.0
24/09:30pm 22.7 24.0 14.0 58 5.1 CALM 0 0 0 0 1015.1 1013.9 0.0
24/09:00pm 23.0 23.1 13.8 56 5.4 WSW 6 9 3 5 1015.0 1013.8 0.0
24/08:30pm 24.6 24.6 13.5 50 6.6 SW 6 7 3 4 1015.0 1013.8 0.0
24/08:00pm 24.2 25.3 13.4 51 6.4 CALM 0 0 0 0 1015.0 1013.8 0.0
24/07:30pm 24.7 24.7 13.6 50 6.6 N 6 6 3 3 1014.9 1013.7 0.0
24/07:00pm 25.0 25.0 13.5 48 6.8 N 6 7 3 4 1014.7 1013.5 0.0
24/06:30pm 25.8 25.5 13.3 46 7.4 NNW 7 9 4 5 1014.6 1013.4 0.0
24/06:00pm 26.5 26.3 12.9 43 8.0 N 6 9 3 5 1014.4 1013.2 0.0
24/05:30pm 27.2 26.9 13.2 42 8.3 N 7 9 4 5 1014.2 1013.0 0.0
24/05:00pm 28.0 27.2 12.8 39 9.0 N 9 13 5 7 1014.0 1012.8 0.0
24/04:30pm 28.7 28.5 13.0 38 9.4 E 6 9 3 5 1014.0 1012.8 0.0
24/04:00pm 28.6 28.2 12.9 38 9.4 N 7 15 4 8 1013.7 1012.5 0.0
24/03:30pm 28.7 27.4 12.6 37 9.6 N 11 19 6 10 1013.7 1012.5 0.0
24/03:00pm 29.5 29.1 12.9 36 9.9 ENE 7 13 4 7 1013.6 1012.3 0.0
24/02:30pm 29.5 28.7 12.9 36 9.9 N 9 17 5 9 1013.7 1012.5 0.0
24/02:00pm 28.9 28.1 12.8 37 9.6 E 9 13 5 7 1013.9 1012.7 0.0
24/01:30pm 28.9 28.4 12.8 37 9.6 W 7 11 4 6 1014.1 1012.9 0.0
24/01:00pm 28.0 27.4 12.4 38 9.2 NNE 7 13 4 7 1014.5 1013.3 0.0

Other Formats:

Comma delimited format used in spreadsheet applications
http://www.bom.gov.au/fwo/IDW60801/IDW60801.94319.axf

JavaScript Object Notation format (JSON) in row-major order
http://www.bom.gov.au/fwo/IDW60801/IDW60801.94319.json